createdAt,value
2022-09-12T00:00:24.171Z,9
2022-09-12T00:15:24.680Z,6
2022-09-12T00:30:24.192Z,11
2022-09-12T00:45:24.851Z,8
2022-09-12T01:00:24.348Z,6
2022-09-12T01:15:24.625Z,8
2022-09-12T01:30:24.779Z,7
2022-09-12T01:45:24.383Z,9
2022-09-12T02:00:24.836Z,11
2022-09-12T02:15:24.123Z,8
2022-09-12T02:30:24.285Z,6
2022-09-12T02:45:24.494Z,10
2022-09-12T03:00:24.813Z,6
2022-09-12T03:15:24.148Z,7
2022-09-12T03:30:24.665Z,7
2022-09-12T03:45:24.164Z,11
2022-09-12T04:00:24.840Z,9
2022-09-12T04:15:24.822Z,6
2022-09-12T04:30:24.406Z,10
2022-09-12T04:45:24.914Z,14
2022-09-12T05:00:24.058Z,9
2022-09-12T05:15:24.174Z,7
2022-09-12T05:30:23.890Z,6
2022-09-12T05:45:24.478Z,8
2022-09-12T06:00:24.593Z,18
2022-09-12T06:15:24.890Z,11
2022-09-12T06:30:25.807Z,5
2022-09-12T06:45:25.041Z,7
2022-09-12T07:00:24.651Z,7
2022-09-12T07:15:24.205Z,7
2022-09-12T07:30:24.303Z,8
2022-09-12T07:45:24.598Z,6
2022-09-12T08:00:24.776Z,6
2022-09-12T08:15:24.097Z,4
2022-09-12T08:30:24.247Z,3
2022-09-12T08:45:23.758Z,5
2022-09-12T09:00:24.155Z,2
2022-09-12T09:15:24.922Z,4
2022-09-12T09:30:24.138Z,2
2022-09-12T09:45:24.717Z,3
2022-09-12T10:00:23.911Z,4
2022-09-12T10:15:24.410Z,4
2022-09-12T10:30:25.291Z,1
2022-09-12T10:45:24.097Z,1
2022-09-12T11:00:23.877Z,3
2022-09-12T11:15:24.317Z,3
2022-09-12T11:30:24.232Z,1
2022-09-12T11:45:24.404Z,3
2022-09-12T12:00:24.559Z,1
2022-09-12T12:15:24.359Z,1
2022-09-12T12:30:24.708Z,2
2022-09-12T12:45:24.424Z,3
2022-09-12T13:00:24.013Z,5
2022-09-12T13:15:24.228Z,4
2022-09-12T13:30:24.268Z,3
2022-09-12T13:45:24.659Z,2
2022-09-12T14:00:24.734Z,2
2022-09-12T14:15:23.827Z,2
2022-09-12T14:30:24.043Z,4
2022-09-12T14:45:24.505Z,3
2022-09-12T15:00:24.791Z,2
2022-09-12T15:15:24.542Z,1
2022-09-12T15:30:24.094Z,1
2022-09-12T15:45:24.867Z,4
2022-09-12T16:00:24.211Z,2
2022-09-12T16:15:24.382Z,2
2022-09-12T16:30:24.932Z,4
2022-09-12T16:45:24.473Z,3
2022-09-12T17:00:24.767Z,4
2022-09-12T17:15:24.295Z,3
2022-09-12T17:30:24.427Z,5
2022-09-12T17:45:24.805Z,6
2022-09-12T18:00:24.802Z,13
2022-09-12T18:15:24.640Z,6
2022-09-12T18:30:24.016Z,7
2022-09-12T18:45:24.647Z,9
2022-09-12T19:00:25.069Z,14
2022-09-12T19:15:24.174Z,14
2022-09-12T19:30:23.787Z,10
2022-09-12T19:45:24.830Z,12
2022-09-12T20:00:23.819Z,9
2022-09-12T20:15:24.250Z,8
2022-09-12T20:30:24.256Z,8
2022-09-12T20:45:24.364Z,6
2022-09-12T21:00:24.066Z,10
2022-09-12T21:15:24.382Z,10
2022-09-12T21:30:24.941Z,10
2022-09-12T21:45:24.305Z,10
2022-09-12T22:00:24.376Z,9
2022-09-12T22:15:41.174Z,8
2022-09-12T22:30:24.168Z,13
2022-09-12T22:45:24.645Z,11
2022-09-12T23:00:24.667Z,11
2022-09-12T23:15:24.211Z,13
2022-09-12T23:30:23.959Z,12
2022-09-12T23:45:24.505Z,12
